sensor_id;sensor_type;location;lat;lon;timestamp;P1;durP1;ratioP1;P2;durP2;ratioP2
35993;SDS011;22066;54.274;18.578;2022-07-29T00:00:44;6.55;;;2.80;;
35993;SDS011;22066;54.274;18.578;2022-07-29T00:03:13;8.25;;;2.80;;
35993;SDS011;22066;54.274;18.578;2022-07-29T00:05:40;5.25;;;2.90;;
35993;SDS011;22066;54.274;18.578;2022-07-29T00:08:06;7.28;;;2.72;;
35993;SDS011;22066;54.274;18.578;2022-07-29T00:10:32;7.25;;;2.80;;
35993;SDS011;22066;54.274;18.578;2022-07-29T00:12:58;7.93;;;2.58;;
35993;SDS011;22066;54.274;18.578;2022-07-29T00:15:24;4.95;;;2.30;;
35993;SDS011;22066;54.274;18.578;2022-07-29T00:17:50;6.18;;;2.22;;
35993;SDS011;22066;54.274;18.578;2022-07-29T00:20:17;8.60;;;3.00;;
35993;SDS011;22066;54.274;18.578;2022-07-29T00:22:43;8.25;;;2.72;;
35993;SDS011;22066;54.274;18.578;2022-07-29T00:25:09;8.98;;;3.28;;
35993;SDS011;22066;54.274;18.578;2022-07-29T00:27:35;6.93;;;2.88;;
35993;SDS011;22066;54.274;18.578;2022-07-29T00:30:02;8.23;;;2.75;;
35993;SDS011;22066;54.274;18.578;2022-07-29T00:32:29;11.18;;;4.10;;
35993;SDS011;22066;54.274;18.578;2022-07-29T00:34:55;11.80;;;3.38;;
35993;SDS011;22066;54.274;18.578;2022-07-29T00:37:39;11.07;;;3.35;;
35993;SDS011;22066;54.274;18.578;2022-07-29T00:40:05;8.50;;;2.90;;
35993;SDS011;22066;54.274;18.578;2022-07-29T00:42:41;9.10;;;2.90;;
35993;SDS011;22066;54.274;18.578;2022-07-29T00:45:07;7.82;;;3.08;;
35993;SDS011;22066;54.274;18.578;2022-07-29T00:47:33;10.20;;;3.40;;
35993;SDS011;22066;54.274;18.578;2022-07-29T00:49:59;8.98;;;3.45;;
35993;SDS011;22066;54.274;18.578;2022-07-29T00:52:25;11.23;;;4.68;;
35993;SDS011;22066;54.274;18.578;2022-07-29T00:54:51;6.18;;;3.13;;
35993;SDS011;22066;54.274;18.578;2022-07-29T00:57:17;7.15;;;2.97;;
35993;SDS011;22066;54.274;18.578;2022-07-29T00:59:43;8.93;;;3.28;;
35993;SDS011;22066;54.274;18.578;2022-07-29T01:02:09;7.68;;;3.67;;
35993;SDS011;22066;54.274;18.578;2022-07-29T01:04:35;7.90;;;3.05;;
35993;SDS011;22066;54.274;18.578;2022-07-29T01:07:01;6.85;;;3.25;;
35993;SDS011;22066;54.274;18.578;2022-07-29T01:09:28;8.82;;;3.33;;
35993;SDS011;22066;54.274;18.578;2022-07-29T01:11:54;10.23;;;3.10;;
35993;SDS011;22066;54.274;18.578;2022-07-29T01:14:20;9.05;;;2.60;;
35993;SDS011;22066;54.274;18.578;2022-07-29T01:16:54;7.45;;;3.00;;
35993;SDS011;22066;54.274;18.578;2022-07-29T01:22:14;7.82;;;2.90;;
35993;SDS011;22066;54.274;18.578;2022-07-29T01:30:10;6.60;;;3.53;;
35993;SDS011;22066;54.274;18.578;2022-07-29T01:32:37;8.73;;;3.40;;
35993;SDS011;22066;54.274;18.578;2022-07-29T01:37:37;6.50;;;3.05;;
35993;SDS011;22066;54.274;18.578;2022-07-29T01:40:05;8.05;;;3.30;;
35993;SDS011;22066;54.274;18.578;2022-07-29T01:42:35;7.38;;;3.80;;
35993;SDS011;22066;54.274;18.578;2022-07-29T01:45:15;10.57;;;3.38;;
35993;SDS011;22066;54.274;18.578;2022-07-29T01:47:54;8.68;;;3.33;;
35993;SDS011;22066;54.274;18.578;2022-07-29T01:50:23;8.07;;;3.22;;
35993;SDS011;22066;54.274;18.578;2022-07-29T01:52:52;11.68;;;3.92;;
35993;SDS011;22066;54.274;18.578;2022-07-29T01:55:20;5.28;;;2.88;;
35993;SDS011;22066;54.274;18.578;2022-07-29T01:57:48;6.45;;;3.10;;
35993;SDS011;22066;54.274;18.578;2022-07-29T02:00:15;8.55;;;3.22;;
35993;SDS011;22066;54.274;18.578;2022-07-29T02:02:42;9.50;;;3.20;;
35993;SDS011;22066;54.274;18.578;2022-07-29T02:05:10;9.27;;;2.70;;
35993;SDS011;22066;54.274;18.578;2022-07-29T02:07:36;7.20;;;3.40;;
35993;SDS011;22066;54.274;18.578;2022-07-29T02:10:03;9.15;;;4.22;;
35993;SDS011;22066;54.274;18.578;2022-07-29T02:12:30;8.32;;;3.63;;
35993;SDS011;22066;54.274;18.578;2022-07-29T02:14:58;10.20;;;3.93;;
35993;SDS011;22066;54.274;18.578;2022-07-29T02:17:26;7.03;;;3.50;;
35993;SDS011;22066;54.274;18.578;2022-07-29T02:19:54;9.30;;;3.22;;
35993;SDS011;22066;54.274;18.578;2022-07-29T02:22:22;8.57;;;3.30;;
35993;SDS011;22066;54.274;18.578;2022-07-29T02:24:48;9.32;;;4.10;;
35993;SDS011;22066;54.274;18.578;2022-07-29T02:27:15;13.57;;;3.92;;
35993;SDS011;22066;54.274;18.578;2022-07-29T02:29:43;10.98;;;4.43;;
35993;SDS011;22066;54.274;18.578;2022-07-29T02:32:11;15.18;;;4.28;;
35993;SDS011;22066;54.274;18.578;2022-07-29T02:37:05;12.13;;;3.88;;
35993;SDS011;22066;54.274;18.578;2022-07-29T02:39:31;13.77;;;3.58;;
35993;SDS011;22066;54.274;18.578;2022-07-29T02:41:59;9.07;;;3.78;;
35993;SDS011;22066;54.274;18.578;2022-07-29T02:44:27;7.55;;;3.47;;
35993;SDS011;22066;54.274;18.578;2022-07-29T02:49:40;8.75;;;3.78;;
35993;SDS011;22066;54.274;18.578;2022-07-29T02:52:09;7.68;;;3.47;;
35993;SDS011;22066;54.274;18.578;2022-07-29T02:54:41;7.78;;;3.88;;
35993;SDS011;22066;54.274;18.578;2022-07-29T02:57:09;10.43;;;3.63;;
35993;SDS011;22066;54.274;18.578;2022-07-29T02:59:36;8.93;;;4.25;;
35993;SDS011;22066;54.274;18.578;2022-07-29T03:02:03;8.90;;;4.00;;
35993;SDS011;22066;54.274;18.578;2022-07-29T03:04:30;11.65;;;4.13;;
35993;SDS011;22066;54.274;18.578;2022-07-29T03:06:58;11.85;;;4.28;;
35993;SDS011;22066;54.274;18.578;2022-07-29T03:09:25;12.60;;;4.35;;
35993;SDS011;22066;54.274;18.578;2022-07-29T03:11:51;9.38;;;4.07;;
35993;SDS011;22066;54.274;18.578;2022-07-29T03:14:19;8.27;;;3.95;;
35993;SDS011;22066;54.274;18.578;2022-07-29T03:16:46;8.25;;;3.88;;
35993;SDS011;22066;54.274;18.578;2022-07-29T03:19:12;9.85;;;4.10;;
35993;SDS011;22066;54.274;18.578;2022-07-29T03:21:38;12.30;;;4.38;;
35993;SDS011;22066;54.274;18.578;2022-07-29T03:24:05;9.27;;;4.20;;
35993;SDS011;22066;54.274;18.578;2022-07-29T03:26:31;12.70;;;4.18;;
35993;SDS011;22066;54.274;18.578;2022-07-29T03:28:57;10.65;;;3.63;;
35993;SDS011;22066;54.274;18.578;2022-07-29T03:31:23;11.32;;;4.55;;
35993;SDS011;22066;54.274;18.578;2022-07-29T03:33:48;11.13;;;3.97;;
35993;SDS011;22066;54.274;18.578;2022-07-29T03:36:14;8.25;;;3.65;;
35993;SDS011;22066;54.274;18.578;2022-07-29T03:38:40;12.52;;;4.13;;
35993;SDS011;22066;54.274;18.578;2022-07-29T03:41:09;12.20;;;4.53;;
35993;SDS011;22066;54.274;18.578;2022-07-29T03:43:36;11.88;;;4.75;;
35993;SDS011;22066;54.274;18.578;2022-07-29T03:46:03;12.65;;;4.20;;
35993;SDS011;22066;54.274;18.578;2022-07-29T03:48:32;12.48;;;4.55;;
35993;SDS011;22066;54.274;18.578;2022-07-29T03:51:00;12.32;;;4.38;;
35993;SDS011;22066;54.274;18.578;2022-07-29T03:53:26;11.40;;;4.95;;
35993;SDS011;22066;54.274;18.578;2022-07-29T03:55:54;14.07;;;4.80;;
35993;SDS011;22066;54.274;18.578;2022-07-29T03:58:21;10.02;;;4.18;;
35993;SDS011;22066;54.274;18.578;2022-07-29T04:00:48;8.45;;;4.07;;
35993;SDS011;22066;54.274;18.578;2022-07-29T04:03:14;7.88;;;4.20;;
35993;SDS011;22066;54.274;18.578;2022-07-29T04:05:40;11.05;;;4.80;;
35993;SDS011;22066;54.274;18.578;2022-07-29T04:08:06;13.93;;;4.20;;
35993;SDS011;22066;54.274;18.578;2022-07-29T04:10:32;8.65;;;3.90;;
35993;SDS011;22066;54.274;18.578;2022-07-29T04:12:59;7.00;;;3.58;;
35993;SDS011;22066;54.274;18.578;2022-07-29T04:15:25;11.40;;;4.25;;
35993;SDS011;22066;54.274;18.578;2022-07-29T04:17:53;9.77;;;3.78;;
35993;SDS011;22066;54.274;18.578;2022-07-29T04:20:19;9.95;;;3.92;;
35993;SDS011;22066;54.274;18.578;2022-07-29T04:22:45;6.90;;;3.53;;
35993;SDS011;22066;54.274;18.578;2022-07-29T04:25:11;10.95;;;3.85;;
35993;SDS011;22066;54.274;18.578;2022-07-29T04:27:37;7.18;;;3.40;;
35993;SDS011;22066;54.274;18.578;2022-07-29T04:30:23;9.88;;;3.80;;
35993;SDS011;22066;54.274;18.578;2022-07-29T04:32:49;6.90;;;3.58;;
35993;SDS011;22066;54.274;18.578;2022-07-29T04:35:15;9.20;;;3.65;;
35993;SDS011;22066;54.274;18.578;2022-07-29T04:37:41;10.90;;;3.90;;
35993;SDS011;22066;54.274;18.578;2022-07-29T04:40:07;10.85;;;5.03;;
35993;SDS011;22066;54.274;18.578;2022-07-29T04:42:34;8.02;;;4.00;;
35993;SDS011;22066;54.274;18.578;2022-07-29T04:45:00;8.32;;;4.20;;
35993;SDS011;22066;54.274;18.578;2022-07-29T04:47:26;9.73;;;3.60;;
35993;SDS011;22066;54.274;18.578;2022-07-29T04:49:52;7.47;;;3.60;;
35993;SDS011;22066;54.274;18.578;2022-07-29T04:52:18;7.57;;;3.72;;
35993;SDS011;22066;54.274;18.578;2022-07-29T04:54:44;9.65;;;4.13;;
35993;SDS011;22066;54.274;18.578;2022-07-29T04:57:10;11.15;;;4.25;;
35993;SDS011;22066;54.274;18.578;2022-07-29T04:59:35;6.72;;;3.70;;
35993;SDS011;22066;54.274;18.578;2022-07-29T05:02:01;8.50;;;3.80;;
35993;SDS011;22066;54.274;18.578;2022-07-29T05:04:27;10.68;;;3.65;;
35993;SDS011;22066;54.274;18.578;2022-07-29T05:06:53;7.70;;;2.88;;
35993;SDS011;22066;54.274;18.578;2022-07-29T05:09:19;6.40;;;2.70;;
35993;SDS011;22066;54.274;18.578;2022-07-29T05:11:45;8.90;;;3.78;;
35993;SDS011;22066;54.274;18.578;2022-07-29T05:14:11;9.20;;;4.40;;
35993;SDS011;22066;54.274;18.578;2022-07-29T05:16:37;8.63;;;3.97;;
35993;SDS011;22066;54.274;18.578;2022-07-29T05:19:07;15.13;;;3.67;;
35993;SDS011;22066;54.274;18.578;2022-07-29T05:21:33;7.80;;;3.00;;
35993;SDS011;22066;54.274;18.578;2022-07-29T05:23:59;9.07;;;2.63;;
35993;SDS011;22066;54.274;18.578;2022-07-29T05:26:25;9.98;;;2.95;;
35993;SDS011;22066;54.274;18.578;2022-07-29T05:28:51;9.85;;;2.83;;
35993;SDS011;22066;54.274;18.578;2022-07-29T05:31:18;9.63;;;3.20;;
35993;SDS011;22066;54.274;18.578;2022-07-29T05:33:44;6.63;;;2.63;;
35993;SDS011;22066;54.274;18.578;2022-07-29T05:36:10;7.63;;;2.80;;
35993;SDS011;22066;54.274;18.578;2022-07-29T05:38:36;8.75;;;3.00;;
35993;SDS011;22066;54.274;18.578;2022-07-29T05:41:03;10.20;;;2.67;;
35993;SDS011;22066;54.274;18.578;2022-07-29T05:43:30;7.45;;;2.63;;
35993;SDS011;22066;54.274;18.578;2022-07-29T05:45:56;3.67;;;1.65;;
35993;SDS011;22066;54.274;18.578;2022-07-29T05:48:22;12.27;;;2.00;;
35993;SDS011;22066;54.274;18.578;2022-07-29T05:50:48;17.58;;;2.60;;
35993;SDS011;22066;54.274;18.578;2022-07-29T05:53:14;7.38;;;2.63;;
35993;SDS011;22066;54.274;18.578;2022-07-29T05:55:41;7.45;;;1.17;;
35993;SDS011;22066;54.274;18.578;2022-07-29T05:58:07;6.28;;;1.13;;
35993;SDS011;22066;54.274;18.578;2022-07-29T06:00:33;3.13;;;1.15;;
35993;SDS011;22066;54.274;18.578;2022-07-29T06:02:59;5.57;;;1.00;;
35993;SDS011;22066;54.274;18.578;2022-07-29T06:05:25;3.28;;;0.98;;
35993;SDS011;22066;54.274;18.578;2022-07-29T06:07:51;10.52;;;1.42;;
35993;SDS011;22066;54.274;18.578;2022-07-29T06:10:17;4.13;;;1.00;;
35993;SDS011;22066;54.274;18.578;2022-07-29T06:12:43;14.85;;;1.58;;
35993;SDS011;22066;54.274;18.578;2022-07-29T06:15:09;3.42;;;0.80;;
35993;SDS011;22066;54.274;18.578;2022-07-29T06:17:35;13.13;;;2.35;;
35993;SDS011;22066;54.274;18.578;2022-07-29T06:20:02;3.65;;;1.08;;
35993;SDS011;22066;54.274;18.578;2022-07-29T06:22:28;2.85;;;0.80;;
35993;SDS011;22066;54.274;18.578;2022-07-29T06:24:54;2.45;;;0.80;;
35993;SDS011;22066;54.274;18.578;2022-07-29T06:27:21;4.45;;;0.90;;
35993;SDS011;22066;54.274;18.578;2022-07-29T06:29:47;6.20;;;1.17;;
35993;SDS011;22066;54.274;18.578;2022-07-29T06:32:13;3.85;;;0.90;;
35993;SDS011;22066;54.274;18.578;2022-07-29T06:34:39;1.70;;;1.00;;
35993;SDS011;22066;54.274;18.578;2022-07-29T06:37:05;2.60;;;0.77;;
35993;SDS011;22066;54.274;18.578;2022-07-29T06:39:33;3.35;;;0.77;;
35993;SDS011;22066;54.274;18.578;2022-07-29T06:41:59;0.90;;;0.65;;
35993;SDS011;22066;54.274;18.578;2022-07-29T06:44:25;54.80;;;3.67;;
35993;SDS011;22066;54.274;18.578;2022-07-29T06:46:51;6.88;;;0.85;;
35993;SDS011;22066;54.274;18.578;2022-07-29T06:49:18;4.28;;;1.05;;
35993;SDS011;22066;54.274;18.578;2022-07-29T06:51:44;10.50;;;1.70;;
35993;SDS011;22066;54.274;18.578;2022-07-29T06:54:10;10.95;;;1.17;;
35993;SDS011;22066;54.274;18.578;2022-07-29T06:56:36;3.55;;;1.10;;
35993;SDS011;22066;54.274;18.578;2022-07-29T06:59:02;6.70;;;1.13;;
35993;SDS011;22066;54.274;18.578;2022-07-29T07:01:28;2.13;;;0.80;;
35993;SDS011;22066;54.274;18.578;2022-07-29T07:03:55;7.38;;;1.10;;
35993;SDS011;22066;54.274;18.578;2022-07-29T07:06:21;4.70;;;1.27;;
35993;SDS011;22066;54.274;18.578;2022-07-29T07:08:47;1.95;;;1.20;;
35993;SDS011;22066;54.274;18.578;2022-07-29T07:11:13;15.32;;;1.55;;
35993;SDS011;22066;54.274;18.578;2022-07-29T07:13:39;8.57;;;1.58;;
35993;SDS011;22066;54.274;18.578;2022-07-29T07:16:05;1.80;;;0.82;;
35993;SDS011;22066;54.274;18.578;2022-07-29T07:18:31;15.20;;;1.13;;
35993;SDS011;22066;54.274;18.578;2022-07-29T07:20:57;13.90;;;1.63;;
35993;SDS011;22066;54.274;18.578;2022-07-29T07:23:23;5.13;;;0.95;;
35993;SDS011;22066;54.274;18.578;2022-07-29T07:25:50;12.32;;;1.55;;
35993;SDS011;22066;54.274;18.578;2022-07-29T07:28:16;29.23;;;2.80;;
35993;SDS011;22066;54.274;18.578;2022-07-29T07:30:42;15.25;;;1.92;;
35993;SDS011;22066;54.274;18.578;2022-07-29T07:33:08;48.60;;;4.28;;
35993;SDS011;22066;54.274;18.578;2022-07-29T07:35:34;11.25;;;1.80;;
35993;SDS011;22066;54.274;18.578;2022-07-29T07:38:00;4.00;;;1.30;;
35993;SDS011;22066;54.274;18.578;2022-07-29T07:40:26;1.77;;;0.70;;
35993;SDS011;22066;54.274;18.578;2022-07-29T07:42:52;6.53;;;0.93;;
35993;SDS011;22066;54.274;18.578;2022-07-29T07:45:19;7.60;;;1.17;;
35993;SDS011;22066;54.274;18.578;2022-07-29T07:47:45;3.80;;;0.80;;
35993;SDS011;22066;54.274;18.578;2022-07-29T07:50:11;15.82;;;1.40;;
35993;SDS011;22066;54.274;18.578;2022-07-29T07:52:50;6.10;;;1.08;;
35993;SDS011;22066;54.274;18.578;2022-07-29T07:55:17;12.10;;;2.15;;
35993;SDS011;22066;54.274;18.578;2022-07-29T07:57:43;3.38;;;1.20;;
35993;SDS011;22066;54.274;18.578;2022-07-29T08:00:10;5.65;;;0.90;;
35993;SDS011;22066;54.274;18.578;2022-07-29T08:02:37;2.30;;;0.60;;
35993;SDS011;22066;54.274;18.578;2022-07-29T08:05:04;2.15;;;0.80;;
35993;SDS011;22066;54.274;18.578;2022-07-29T08:07:30;3.03;;;0.70;;
35993;SDS011;22066;54.274;18.578;2022-07-29T08:09:56;3.13;;;0.68;;
35993;SDS011;22066;54.274;18.578;2022-07-29T08:12:22;1.83;;;0.63;;
35993;SDS011;22066;54.274;18.578;2022-07-29T08:14:48;8.20;;;0.80;;
35993;SDS011;22066;54.274;18.578;2022-07-29T08:17:14;2.05;;;0.82;;
35993;SDS011;22066;54.274;18.578;2022-07-29T08:19:40;3.78;;;0.80;;
35993;SDS011;22066;54.274;18.578;2022-07-29T08:22:06;1.25;;;0.60;;
35993;SDS011;22066;54.274;18.578;2022-07-29T08:24:32;1.98;;;0.70;;
35993;SDS011;22066;54.274;18.578;2022-07-29T08:27:16;2.20;;;0.80;;
35993;SDS011;22066;54.274;18.578;2022-07-29T08:29:42;7.57;;;0.93;;
35993;SDS011;22066;54.274;18.578;2022-07-29T08:32:08;1.98;;;0.60;;
35993;SDS011;22066;54.274;18.578;2022-07-29T08:34:34;1.92;;;0.82;;
35993;SDS011;22066;54.274;18.578;2022-07-29T08:37:00;5.13;;;0.80;;
35993;SDS011;22066;54.274;18.578;2022-07-29T08:39:26;6.43;;;1.20;;
35993;SDS011;22066;54.274;18.578;2022-07-29T08:41:52;1.60;;;0.80;;
35993;SDS011;22066;54.274;18.578;2022-07-29T08:44:20;3.78;;;0.65;;
35993;SDS011;22066;54.274;18.578;2022-07-29T08:46:46;5.20;;;0.82;;
35993;SDS011;22066;54.274;18.578;2022-07-29T08:49:13;4.55;;;0.80;;
35993;SDS011;22066;54.274;18.578;2022-07-29T08:51:39;4.03;;;1.05;;
35993;SDS011;22066;54.274;18.578;2022-07-29T08:54:07;0.75;;;0.40;;
35993;SDS011;22066;54.274;18.578;2022-07-29T08:56:33;17.60;;;2.17;;
35993;SDS011;22066;54.274;18.578;2022-07-29T08:59:02;1.75;;;0.80;;
35993;SDS011;22066;54.274;18.578;2022-07-29T09:01:29;1.83;;;0.80;;
35993;SDS011;22066;54.274;18.578;2022-07-29T09:03:55;2.40;;;0.83;;
35993;SDS011;22066;54.274;18.578;2022-07-29T09:06:22;2.33;;;0.70;;
35993;SDS011;22066;54.274;18.578;2022-07-29T09:08:52;0.95;;;0.47;;
35993;SDS011;22066;54.274;18.578;2022-07-29T09:11:18;2.28;;;0.65;;
35993;SDS011;22066;54.274;18.578;2022-07-29T09:13:44;0.65;;;0.60;;
35993;SDS011;22066;54.274;18.578;2022-07-29T09:16:11;1.83;;;0.57;;
35993;SDS011;22066;54.274;18.578;2022-07-29T09:18:41;2.08;;;0.70;;
35993;SDS011;22066;54.274;18.578;2022-07-29T09:21:08;2.35;;;0.70;;
35993;SDS011;22066;54.274;18.578;2022-07-29T09:26:28;1.13;;;0.70;;
35993;SDS011;22066;54.274;18.578;2022-07-29T09:28:55;1.20;;;0.70;;
35993;SDS011;22066;54.274;18.578;2022-07-29T09:31:34;2.75;;;0.70;;
35993;SDS011;22066;54.274;18.578;2022-07-29T09:34:00;1.35;;;0.57;;
35993;SDS011;22066;54.274;18.578;2022-07-29T09:36:26;3.03;;;0.82;;
35993;SDS011;22066;54.274;18.578;2022-07-29T09:39:02;1.58;;;0.65;;
35993;SDS011;22066;54.274;18.578;2022-07-29T09:41:28;5.10;;;1.00;;
35993;SDS011;22066;54.274;18.578;2022-07-29T09:43:58;4.40;;;1.27;;
35993;SDS011;22066;54.274;18.578;2022-07-29T09:46:25;1.02;;;0.80;;
35993;SDS011;22066;54.274;18.578;2022-07-29T09:51:33;1.77;;;1.10;;
35993;SDS011;22066;54.274;18.578;2022-07-29T09:53:59;24.70;;;2.90;;
35993;SDS011;22066;54.274;18.578;2022-07-29T09:56:38;14.05;;;2.15;;
35993;SDS011;22066;54.274;18.578;2022-07-29T09:59:07;2.17;;;0.90;;
35993;SDS011;22066;54.274;18.578;2022-07-29T10:01:33;2.60;;;1.00;;
35993;SDS011;22066;54.274;18.578;2022-07-29T10:04:00;1.67;;;0.63;;
35993;SDS011;22066;54.274;18.578;2022-07-29T10:06:27;2.67;;;0.80;;
35993;SDS011;22066;54.274;18.578;2022-07-29T10:08:53;3.10;;;0.80;;
35993;SDS011;22066;54.274;18.578;2022-07-29T10:11:19;3.65;;;1.10;;
35993;SDS011;22066;54.274;18.578;2022-07-29T10:13:46;2.45;;;0.90;;
35993;SDS011;22066;54.274;18.578;2022-07-29T10:16:13;1.75;;;0.95;;
35993;SDS011;22066;54.274;18.578;2022-07-29T10:18:40;2.88;;;0.90;;
35993;SDS011;22066;54.274;18.578;2022-07-29T10:21:08;5.40;;;0.90;;
35993;SDS011;22066;54.274;18.578;2022-07-29T10:23:35;1.55;;;0.90;;
35993;SDS011;22066;54.274;18.578;2022-07-29T10:26:02;2.92;;;1.10;;
35993;SDS011;22066;54.274;18.578;2022-07-29T10:28:29;14.40;;;2.47;;
35993;SDS011;22066;54.274;18.578;2022-07-29T10:30:58;1.45;;;0.60;;
35993;SDS011;22066;54.274;18.578;2022-07-29T10:33:41;1.70;;;0.77;;
35993;SDS011;22066;54.274;18.578;2022-07-29T10:44:00;2.22;;;0.82;;
35993;SDS011;22066;54.274;18.578;2022-07-29T10:46:27;5.55;;;1.17;;
35993;SDS011;22066;54.274;18.578;2022-07-29T10:51:52;1.73;;;1.05;;
35993;SDS011;22066;54.274;18.578;2022-07-29T10:54:41;3.03;;;1.52;;
35993;SDS011;22066;54.274;18.578;2022-07-29T10:59:38;2.17;;;0.70;;
35993;SDS011;22066;54.274;18.578;2022-07-29T11:07:15;3.60;;;0.88;;
35993;SDS011;22066;54.274;18.578;2022-07-29T11:09:42;2.40;;;0.77;;
35993;SDS011;22066;54.274;18.578;2022-07-29T11:14:55;2.58;;;0.60;;
35993;SDS011;22066;54.274;18.578;2022-07-29T11:17:21;1.13;;;0.60;;
35993;SDS011;22066;54.274;18.578;2022-07-29T11:19:48;1.02;;;0.70;;
35993;SDS011;22066;54.274;18.578;2022-07-29T11:22:32;1.40;;;0.65;;
35993;SDS011;22066;54.274;18.578;2022-07-29T11:25:14;1.40;;;0.60;;
35993;SDS011;22066;54.274;18.578;2022-07-29T11:27:41;2.35;;;0.68;;
35993;SDS011;22066;54.274;18.578;2022-07-29T11:30:07;5.30;;;0.80;;
35993;SDS011;22066;54.274;18.578;2022-07-29T11:32:43;1.55;;;0.40;;
35993;SDS011;22066;54.274;18.578;2022-07-29T11:35:10;2.50;;;0.80;;
35993;SDS011;22066;54.274;18.578;2022-07-29T11:37:36;0.73;;;0.60;;
35993;SDS011;22066;54.274;18.578;2022-07-29T11:45:19;1.13;;;0.47;;
35993;SDS011;22066;54.274;18.578;2022-07-29T11:47:47;0.98;;;0.57;;
35993;SDS011;22066;54.274;18.578;2022-07-29T11:50:14;2.78;;;0.75;;
35993;SDS011;22066;54.274;18.578;2022-07-29T11:52:47;4.68;;;0.80;;
35993;SDS011;22066;54.274;18.578;2022-07-29T11:55:17;5.00;;;0.60;;
35993;SDS011;22066;54.274;18.578;2022-07-29T12:00:13;0.68;;;0.50;;
35993;SDS011;22066;54.274;18.578;2022-07-29T12:02:46;2.55;;;0.60;;
35993;SDS011;22066;54.274;18.578;2022-07-29T12:05:12;1.77;;;0.70;;
35993;SDS011;22066;54.274;18.578;2022-07-29T12:07:38;0.52;;;0.50;;
35993;SDS011;22066;54.274;18.578;2022-07-29T12:10:05;3.42;;;1.38;;
35993;SDS011;22066;54.274;18.578;2022-07-29T12:12:31;0.98;;;0.68;;
35993;SDS011;22066;54.274;18.578;2022-07-29T12:14:57;1.00;;;0.68;;
35993;SDS011;22066;54.274;18.578;2022-07-29T12:17:24;3.42;;;0.70;;
35993;SDS011;22066;54.274;18.578;2022-07-29T12:19:51;1.58;;;0.80;;
35993;SDS011;22066;54.274;18.578;2022-07-29T12:22:30;2.83;;;0.85;;
35993;SDS011;22066;54.274;18.578;2022-07-29T12:25:02;1.85;;;0.60;;
35993;SDS011;22066;54.274;18.578;2022-07-29T12:27:28;0.52;;;0.40;;
35993;SDS011;22066;54.274;18.578;2022-07-29T12:29:55;1.85;;;0.57;;
35993;SDS011;22066;54.274;18.578;2022-07-29T12:32:21;1.70;;;0.70;;
35993;SDS011;22066;54.274;18.578;2022-07-29T12:34:48;0.83;;;0.50;;
35993;SDS011;22066;54.274;18.578;2022-07-29T12:37:14;0.93;;;0.63;;
35993;SDS011;22066;54.274;18.578;2022-07-29T12:39:40;2.05;;;0.52;;
35993;SDS011;22066;54.274;18.578;2022-07-29T12:42:10;1.33;;;0.65;;
35993;SDS011;22066;54.274;18.578;2022-07-29T12:44:49;2.78;;;0.82;;
35993;SDS011;22066;54.274;18.578;2022-07-29T12:47:16;3.22;;;0.70;;
35993;SDS011;22066;54.274;18.578;2022-07-29T12:49:45;1.25;;;0.60;;
35993;SDS011;22066;54.274;18.578;2022-07-29T12:52:28;1.00;;;0.65;;
35993;SDS011;22066;54.274;18.578;2022-07-29T12:54:54;0.98;;;0.60;;
35993;SDS011;22066;54.274;18.578;2022-07-29T12:57:20;1.73;;;0.90;;
35993;SDS011;22066;54.274;18.578;2022-07-29T13:02:35;1.48;;;0.60;;
35993;SDS011;22066;54.274;18.578;2022-07-29T13:05:01;1.65;;;0.90;;
35993;SDS011;22066;54.274;18.578;2022-07-29T13:07:29;0.70;;;0.60;;
35993;SDS011;22066;54.274;18.578;2022-07-29T13:10:10;1.00;;;0.70;;
35993;SDS011;22066;54.274;18.578;2022-07-29T13:12:36;3.00;;;0.70;;
35993;SDS011;22066;54.274;18.578;2022-07-29T13:15:11;3.45;;;1.42;;
35993;SDS011;22066;54.274;18.578;2022-07-29T13:17:41;3.13;;;0.90;;
35993;SDS011;22066;54.274;18.578;2022-07-29T13:20:09;1.70;;;0.90;;
35993;SDS011;22066;54.274;18.578;2022-07-29T13:22:39;3.40;;;0.82;;
35993;SDS011;22066;54.274;18.578;2022-07-29T13:25:07;3.55;;;0.90;;
35993;SDS011;22066;54.274;18.578;2022-07-29T13:27:34;4.70;;;0.90;;
35993;SDS011;22066;54.274;18.578;2022-07-29T13:30:02;3.83;;;0.98;;
35993;SDS011;22066;54.274;18.578;2022-07-29T13:32:29;4.65;;;0.82;;
35993;SDS011;22066;54.274;18.578;2022-07-29T13:34:59;0.88;;;0.70;;
35993;SDS011;22066;54.274;18.578;2022-07-29T13:37:25;3.15;;;0.60;;
35993;SDS011;22066;54.274;18.578;2022-07-29T13:39:54;1.45;;;0.80;;
35993;SDS011;22066;54.274;18.578;2022-07-29T13:42:21;1.58;;;0.80;;
35993;SDS011;22066;54.274;18.578;2022-07-29T13:44:47;0.70;;;0.63;;
35993;SDS011;22066;54.274;18.578;2022-07-29T13:47:16;2.72;;;0.85;;
35993;SDS011;22066;54.274;18.578;2022-07-29T13:49:43;2.45;;;0.63;;
35993;SDS011;22066;54.274;18.578;2022-07-29T13:52:09;3.25;;;0.80;;
35993;SDS011;22066;54.274;18.578;2022-07-29T13:54:35;2.10;;;0.82;;
35993;SDS011;22066;54.274;18.578;2022-07-29T13:57:02;2.10;;;0.82;;
35993;SDS011;22066;54.274;18.578;2022-07-29T13:59:28;1.38;;;0.77;;
35993;SDS011;22066;54.274;18.578;2022-07-29T14:01:54;1.70;;;0.85;;
35993;SDS011;22066;54.274;18.578;2022-07-29T14:04:20;2.65;;;0.80;;
35993;SDS011;22066;54.274;18.578;2022-07-29T14:06:48;2.15;;;1.10;;
35993;SDS011;22066;54.274;18.578;2022-07-29T14:09:14;2.60;;;1.17;;
35993;SDS011;22066;54.274;18.578;2022-07-29T14:11:40;1.55;;;0.90;;
35993;SDS011;22066;54.274;18.578;2022-07-29T14:14:06;2.50;;;0.70;;
35993;SDS011;22066;54.274;18.578;2022-07-29T14:16:32;5.47;;;1.17;;
35993;SDS011;22066;54.274;18.578;2022-07-29T14:18:58;2.05;;;1.20;;
35993;SDS011;22066;54.274;18.578;2022-07-29T14:21:25;7.10;;;1.10;;
35993;SDS011;22066;54.274;18.578;2022-07-29T14:23:51;1.45;;;0.82;;
35993;SDS011;22066;54.274;18.578;2022-07-29T14:28:44;1.25;;;0.70;;
35993;SDS011;22066;54.274;18.578;2022-07-29T14:31:10;2.17;;;0.70;;
35993;SDS011;22066;54.274;18.578;2022-07-29T14:33:36;1.98;;;0.73;;
35993;SDS011;22066;54.274;18.578;2022-07-29T14:36:03;1.33;;;0.77;;
35993;SDS011;22066;54.274;18.578;2022-07-29T14:38:29;2.45;;;0.80;;
35993;SDS011;22066;54.274;18.578;2022-07-29T14:40:55;1.23;;;0.57;;
35993;SDS011;22066;54.274;18.578;2022-07-29T14:43:21;0.93;;;0.60;;
35993;SDS011;22066;54.274;18.578;2022-07-29T14:45:46;2.40;;;0.85;;
35993;SDS011;22066;54.274;18.578;2022-07-29T14:48:12;1.08;;;0.68;;
35993;SDS011;22066;54.274;18.578;2022-07-29T14:50:38;1.08;;;0.60;;
35993;SDS011;22066;54.274;18.578;2022-07-29T14:53:05;2.35;;;0.80;;
35993;SDS011;22066;54.274;18.578;2022-07-29T14:55:31;3.50;;;0.70;;
35993;SDS011;22066;54.274;18.578;2022-07-29T14:57:57;2.17;;;0.70;;
35993;SDS011;22066;54.274;18.578;2022-07-29T15:00:24;4.70;;;1.27;;
35993;SDS011;22066;54.274;18.578;2022-07-29T15:02:50;2.90;;;0.90;;
35993;SDS011;22066;54.274;18.578;2022-07-29T15:05:16;3.40;;;0.70;;
35993;SDS011;22066;54.274;18.578;2022-07-29T15:07:42;2.92;;;1.10;;
35993;SDS011;22066;54.274;18.578;2022-07-29T15:10:08;1.23;;;0.65;;
35993;SDS011;22066;54.274;18.578;2022-07-29T15:12:35;1.60;;;0.80;;
35993;SDS011;22066;54.274;18.578;2022-07-29T15:15:01;2.83;;;1.38;;
35993;SDS011;22066;54.274;18.578;2022-07-29T15:17:27;2.20;;;0.85;;
35993;SDS011;22066;54.274;18.578;2022-07-29T15:19:53;2.15;;;0.80;;
35993;SDS011;22066;54.274;18.578;2022-07-29T15:22:19;4.72;;;1.10;;
35993;SDS011;22066;54.274;18.578;2022-07-29T15:24:45;1.63;;;0.60;;
35993;SDS011;22066;54.274;18.578;2022-07-29T15:27:11;1.20;;;0.65;;
35993;SDS011;22066;54.274;18.578;2022-07-29T15:29:42;1.00;;;0.80;;